Time;durP1;ratioP1;P1;durP2;ratioP2;P2;SDS_P1;SDS_P2;PMS_P1;PMS_P2;Temp;Humidity;BMP_temperature;BMP_pressure;BME280_temperature;BME280_humidity;BME280_pressure;Samples;Min_cycle;Max_cycle;Signal;HPM_P1;HPM_P2
2021/03/08 00:02:19;;;;;;;35.10;20.88;;;4.60;79.60;;;;;;5073530;28;20032;-88
2021/03/08 00:04:45;;;;;;;38.45;22.33;;;4.60;79.60;;;;;;5073030;28;20025;-88
2021/03/08 00:07:10;;;;;;;44.03;24.88;;;4.50;80.30;;;;;;5073162;28;20239;-89
2021/03/08 00:09:38;;;;;;;48.58;27.17;;;4.40;81.10;;;;;;5072918;28;20032;-89
2021/03/08 00:12:05;;;;;;;45.22;25.88;;;4.30;81.70;;;;;;5073055;28;20055;-89
2021/03/08 00:14:31;;;;;;;49.25;28.85;;;4.30;82.10;;;;;;5073107;28;20021;-89
2021/03/08 00:16:56;;;;;;;48.50;26.65;;;4.20;83.00;;;;;;5072890;28;20070;-89
2021/03/08 00:19:22;;;;;;;53.00;30.70;;;4.20;83.10;;;;;;5072804;28;20020;-88
2021/03/08 00:21:47;;;;;;;48.05;27.85;;;4.20;83.60;;;;;;5073108;28;20043;-88
2021/03/08 00:24:14;;;;;;;47.28;27.50;;;4.20;84.10;;;;;;5072799;28;20174;-88
2021/03/08 00:26:40;;;;;;;49.90;28.02;;;4.20;84.30;;;;;;5073974;28;20020;-88
2021/03/08 00:29:07;;;;;;;46.50;26.17;;;4.20;84.50;;;;;;5072819;28;20025;-88
2021/03/08 00:31:32;;;;;;;57.60;31.55;;;4.20;85.00;;;;;;5072940;28;20046;-88
2021/03/08 00:33:58;;;;;;;51.80;28.98;;;4.20;85.80;;;;;;5072568;28;20480;-89
2021/03/08 00:36:23;;;;;;;47.17;28.10;;;4.20;85.70;;;;;;5072899;28;20020;-88
2021/03/08 00:38:49;;;;;;;45.50;25.80;;;4.20;85.40;;;;;;5072721;28;20047;-89
2021/03/08 00:41:14;;;;;;;43.97;25.00;;;4.20;85.30;;;;;;5072624;28;20476;-88
2021/03/08 00:43:40;;;;;;;40.67;21.63;;;4.30;85.20;;;;;;5072783;28;20032;-88
2021/03/08 00:46:05;;;;;;;36.03;20.63;;;4.30;85.00;;;;;;5072666;28;20036;-89
2021/03/08 00:48:31;;;;;;;32.83;18.67;;;4.30;84.70;;;;;;5072778;28;20547;-87
2021/03/08 00:50:56;;;;;;;35.63;20.65;;;4.40;84.50;;;;;;5072897;28;20365;-88
2021/03/08 00:53:22;;;;;;;43.80;25.23;;;4.40;84.20;;;;;;5106637;28;20025;-88
2021/03/08 00:55:48;;;;;;;58.28;32.33;;;4.40;84.50;;;;;;5073564;28;20492;-88
2021/03/08 00:58:13;;;;;;;57.47;31.27;;;4.30;85.60;;;;;;5072479;28;20034;-89
2021/03/08 01:00:39;;;;;;;54.28;30.63;;;4.20;86.50;;;;;;5075149;28;20023;-88
2021/03/08 01:03:05;;;;;;;54.63;28.98;;;4.10;87.60;;;;;;5076751;28;20555;-88
2021/03/08 01:05:30;;;;;;;53.03;28.35;;;4.00;88.00;;;;;;5076618;28;20115;-88
2021/03/08 01:07:56;;;;;;;54.85;31.27;;;4.00;88.30;;;;;;5110624;28;20545;-88
2021/03/08 01:10:25;;;;;;;49.83;28.70;;;4.00;88.60;;;;;;5076208;28;20291;-88
2021/03/08 01:12:51;;;;;;;57.70;31.52;;;4.10;88.50;;;;;;5110599;28;20024;-88
2021/03/08 01:15:17;;;;;;;52.45;27.98;;;4.00;89.00;;;;;;5076445;28;20513;-88
2021/03/08 01:17:42;;;;;;;54.28;27.98;;;4.00;88.80;;;;;;5076705;28;20024;-88
2021/03/08 01:20:11;;;;;;;50.67;28.20;;;4.00;88.80;;;;;;5076419;28;20016;-89
2021/03/08 01:22:37;;;;;;;45.92;25.48;;;4.10;88.80;;;;;;5077451;28;20108;-88
2021/03/08 01:25:15;;;;;;;46.10;24.58;;;4.00;88.70;;;;;;5077608;28;20060;-87
2021/03/08 01:27:42;;;;;;;43.33;23.33;;;4.10;88.40;;;;;;5077207;28;20119;-87
2021/03/08 01:30:14;;;;;;;40.17;21.02;;;4.10;88.30;;;;;;5076811;28;20025;-88
2021/03/08 01:32:39;;;;;;;41.10;23.27;;;4.20;87.90;;;;;;5078059;28;20067;-88
2021/03/08 01:35:06;;;;;;;44.20;24.55;;;4.20;87.70;;;;;;5076111;28;20021;-88
2021/03/08 01:37:31;;;;;;;48.15;25.42;;;4.20;87.50;;;;;;5076024;28;20020;-88
2021/03/08 01:39:58;;;;;;;45.60;24.25;;;4.20;87.60;;;;;;5075992;28;20024;-87
2021/03/08 01:42:24;;;;;;;50.80;28.25;;;4.20;87.40;;;;;;5076066;28;20028;-88
2021/03/08 01:44:50;;;;;;;58.17;32.88;;;4.20;87.60;;;;;;5075873;28;20119;-88
2021/03/08 01:47:15;;;;;;;61.10;33.83;;;4.10;88.40;;;;;;5075804;28;20024;-87
2021/03/08 01:49:41;;;;;;;64.10;34.60;;;4.10;89.00;;;;;;5076828;28;20438;-88
2021/03/08 01:52:09;;;;;;;61.55;33.50;;;4.00;89.60;;;;;;5076766;28;20044;-87
2021/03/08 01:54:35;;;;;;;65.10;34.33;;;4.00;90.00;;;;;;5076585;28;20024;-88
2021/03/08 01:57:01;;;;;;;58.00;30.63;;;3.90;90.20;;;;;;5075513;28;20021;-88
2021/03/08 01:59:27;;;;;;;52.08;29.17;;;3.90;90.10;;;;;;5074771;28;20123;-88
2021/03/08 02:01:54;;;;;;;58.17;31.67;;;3.90;90.10;;;;;;5074458;28;20162;-88
2021/03/08 02:04:20;;;;;;;51.10;27.42;;;3.90;90.20;;;;;;5074484;28;20035;-89
2021/03/08 02:06:45;;;;;;;45.42;25.38;;;3.90;90.00;;;;;;5074332;28;20345;-88
2021/03/08 02:09:11;;;;;;;41.10;23.05;;;4.00;90.00;;;;;;5074232;28;20108;-87
2021/03/08 02:11:39;;;;;;;40.15;22.05;;;4.00;89.70;;;;;;5073711;28;20500;-88
2021/03/08 02:14:50;;;;;;;43.55;24.92;;;4.10;89.50;;;;;;5075260;28;20162;-88
2021/03/08 02:17:30;;;;;;;57.03;31.05;;;4.10;89.20;;;;;;5047898;28;20541;-88
2021/03/08 02:20:18;;;;;;;57.85;32.40;;;4.10;90.00;;;;;;5074474;28;20089;-88
2021/03/08 02:23:22;;;;;;;57.80;30.50;;;3.90;90.30;;;;;;5075062;28;20025;-88
2021/03/08 02:26:21;;;;;;;47.85;26.05;;;4.00;90.40;;;;;;5074299;28;20020;-87
2021/03/08 02:28:59;;;;;;;53.08;29.48;;;4.00;90.30;;;;;;5075034;28;20063;-88
2021/03/08 02:31:25;;;;;;;46.60;25.75;;;4.00;90.20;;;;;;5075137;28;20028;-87
2021/03/08 02:34:05;;;;;;;43.67;24.05;;;4.10;90.00;;;;;;5074979;28;20504;-88
2021/03/08 02:36:35;;;;;;;40.17;21.13;;;4.20;89.80;;;;;;5073879;28;20039;-88
2021/03/08 02:39:29;;;;;;;36.95;20.13;;;4.30;89.50;;;;;;5073911;28;20097;-88
2021/03/08 02:41:57;;;;;;;32.25;18.13;;;4.30;89.20;;;;;;5064065;28;20077;-88
2021/03/08 02:44:29;;;;;;;32.53;17.38;;;4.30;89.20;;;;;;5074802;28;20020;-87
2021/03/08 02:46:56;;;;;;;33.00;17.38;;;4.30;89.00;;;;;;5073777;28;20028;-89
2021/03/08 02:49:26;;;;;;;33.28;17.88;;;4.40;88.90;;;;;;5073674;28;20024;-88
2021/03/08 02:52:02;;;;;;;35.00;19.08;;;4.40;88.70;;;;;;5074847;28;20030;-88
2021/03/08 02:54:30;;;;;;;32.20;18.20;;;4.40;88.60;;;;;;5073570;28;20051;-88
2021/03/08 02:57:03;;;;;;;31.45;18.33;;;4.30;88.70;;;;;;5074431;28;20078;-88
2021/03/08 02:59:31;;;;;;;33.50;18.30;;;4.30;88.90;;;;;;5057625;28;556713;-89
2021/03/08 03:01:58;;;;;;;36.22;19.30;;;4.30;89.00;;;;;;5079175;28;20052;-88
2021/03/08 03:04:24;;;;;;;32.75;18.10;;;4.20;89.10;;;;;;5074693;28;20028;-88
2021/03/08 03:06:51;;;;;;;34.03;18.83;;;4.30;89.10;;;;;;5074295;28;20021;-88
2021/03/08 03:09:20;;;;;;;33.95;18.73;;;4.30;88.90;;;;;;5075395;28;20021;-88
2021/03/08 03:11:53;;;;;;;40.13;22.47;;;4.40;88.80;;;;;;5074261;28;20063;-87
2021/03/08 03:14:20;;;;;;;42.85;23.08;;;4.30;88.80;;;;;;5074109;28;20488;-88
2021/03/08 03:16:50;;;;;;;45.78;25.00;;;4.30;89.00;;;;;;5074122;28;20107;-89
2021/03/08 03:19:19;;;;;;;42.05;23.02;;;4.20;89.10;;;;;;5074128;28;20067;-88
2021/03/08 03:21:45;;;;;;;41.55;23.92;;;4.20;89.00;;;;;;5074913;28;20029;-87
2021/03/08 03:24:12;;;;;;;44.63;23.38;;;4.20;89.20;;;;;;5073112;28;20052;-87
2021/03/08 03:26:39;;;;;;;39.70;22.42;;;4.20;89.30;;;;;;5073782;28;20028;-87
2021/03/08 03:29:05;;;;;;;36.15;19.90;;;4.20;89.30;;;;;;5075075;28;20038;-87
2021/03/08 03:31:36;;;;;;;34.97;19.52;;;4.20;89.40;;;;;;5074299;28;20098;-87
2021/03/08 03:34:04;;;;;;;35.22;19.75;;;4.20;89.40;;;;;;5074936;28;20054;-88
2021/03/08 03:36:33;;;;;;;35.35;19.15;;;4.20;89.30;;;;;;5075026;28;20025;-88
2021/03/08 03:38:59;;;;;;;31.85;18.73;;;4.10;89.40;;;;;;5074625;28;20044;-87
2021/03/08 03:41:26;;;;;;;40.65;22.45;;;4.10;89.60;;;;;;5073812;28;20387;-88
2021/03/08 03:43:52;;;;;;;45.67;24.45;;;4.10;89.80;;;;;;5073467;28;20029;-88
2021/03/08 03:46:18;;;;;;;41.72;23.23;;;4.10;89.90;;;;;;5073600;28;20029;-88
2021/03/08 03:48:43;;;;;;;41.58;22.30;;;4.10;90.00;;;;;;5073307;28;20498;-88
2021/03/08 03:51:09;;;;;;;36.83;21.40;;;4.20;89.90;;;;;;5073423;28;20499;-87
2021/03/08 03:53:34;;;;;;;37.20;19.48;;;4.20;89.80;;;;;;5073546;28;20062;-88
2021/03/08 03:56:00;;;;;;;35.00;18.45;;;4.30;89.80;;;;;;5074343;28;20032;-87
2021/03/08 03:58:27;;;;;;;33.78;19.10;;;4.20;89.80;;;;;;5073270;28;20044;-87
2021/03/08 04:01:00;;;;;;;30.85;17.80;;;4.20;89.90;;;;;;5073000;28;20036;-88
2021/03/08 04:03:32;;;;;;;30.38;16.45;;;4.30;89.90;;;;;;5073359;28;20063;-88
2021/03/08 04:05:59;;;;;;;31.25;17.58;;;4.30;90.00;;;;;;5073210;28;20047;-87
2021/03/08 04:08:27;;;;;;;31.35;16.98;;;4.30;90.00;;;;;;5074317;28;20499;-88
2021/03/08 04:10:55;;;;;;;34.00;18.63;;;4.30;90.00;;;;;;5072487;28;20064;-87
2021/03/08 04:13:26;;;;;;;30.73;18.23;;;4.20;90.00;;;;;;5072585;28;20123;-88
2021/03/08 04:15:54;;;;;;;34.88;20.88;;;4.30;90.00;;;;;;5073172;28;20031;-89
2021/03/08 04:18:21;;;;;;;36.53;20.67;;;4.30;90.00;;;;;;5074186;28;20021;-88
2021/03/08 04:20:48;;;;;;;46.65;24.65;;;4.30;90.00;;;;;;5073096;28;20024;-89
2021/03/08 04:23:14;;;;;;;53.42;30.88;;;4.20;90.20;;;;;;5073235;28;20090;-89
2021/03/08 04:25:40;;;;;;;61.30;31.40;;;4.10;90.60;;;;;;5072961;28;20063;-88
2021/03/08 04:28:08;;;;;;;51.83;28.50;;;4.00;91.20;;;;;;5072898;28;20430;-88
2021/03/08 04:30:34;;;;;;;41.30;23.50;;;4.00;91.30;;;;;;5073038;28;20078;-89
2021/03/08 04:33:01;;;;;;;39.50;22.52;;;4.00;91.30;;;;;;5072621;28;20028;-87
2021/03/08 04:35:30;;;;;;;36.97;20.42;;;4.10;91.20;;;;;;5072831;28;20016;-88
2021/03/08 04:37:59;;;;;;;34.70;19.60;;;4.10;91.10;;;;;;5072745;28;20016;-88
2021/03/08 04:40:25;;;;;;;40.78;21.98;;;4.20;90.90;;;;;;5072725;28;20068;-87
2021/03/08 04:42:52;;;;;;;43.90;25.65;;;4.20;90.90;;;;;;5073706;28;20052;-87
2021/03/08 04:45:19;;;;;;;53.85;29.95;;;4.10;91.10;;;;;;5073750;28;20029;-88
2021/03/08 04:47:45;;;;;;;50.47;29.23;;;4.10;91.50;;;;;;5072639;28;20121;-88
2021/03/08 04:50:13;;;;;;;51.50;28.75;;;4.00;91.70;;;;;;5072840;28;20032;-87
2021/03/08 04:52:42;;;;;;;53.97;30.58;;;4.00;91.90;;;;;;5072463;28;20032;-88
2021/03/08 04:55:09;;;;;;;56.13;30.80;;;4.00;92.10;;;;;;5072702;28;20078;-88
2021/03/08 04:57:35;;;;;;;55.13;30.95;;;3.90;92.40;;;;;;5072272;28;20021;-88
2021/03/08 05:00:04;;;;;;;64.43;33.20;;;3.90;92.50;;;;;;5073458;28;20055;-89
2021/03/08 05:02:33;;;;;;;59.58;33.33;;;3.90;92.70;;;;;;5072385;28;20028;-87
2021/03/08 05:05:02;;;;;;;63.30;32.37;;;3.90;92.80;;;;;;5073513;28;20024;-88
2021/03/08 05:07:30;;;;;;;62.42;34.15;;;3.80;93.10;;;;;;5073498;28;20278;-89
2021/03/08 05:09:56;;;;;;;57.60;31.95;;;3.80;93.60;;;;;;5072640;28;20020;-88
2021/03/08 05:12:26;;;;;;;56.17;33.15;;;3.80;93.90;;;;;;5072274;28;20032;-89
2021/03/08 05:14:54;;;;;;;61.88;34.85;;;3.80;93.90;;;;;;5072603;28;20020;-88
2021/03/08 05:17:22;;;;;;;64.88;34.75;;;3.80;94.00;;;;;;5072245;28;20388;-88
2021/03/08 05:19:48;;;;;;;63.67;35.03;;;3.80;94.10;;;;;;5072770;28;20025;-89
2021/03/08 05:22:15;;;;;;;65.20;37.05;;;3.80;94.10;;;;;;5072373;28;20028;-88
2021/03/08 05:24:47;;;;;;;60.17;33.40;;;3.80;94.20;;;;;;5073360;28;20029;-88
2021/03/08 05:27:13;;;;;;;59.63;32.88;;;3.80;94.30;;;;;;5072373;28;20115;-88
2021/03/08 05:29:41;;;;;;;63.25;33.60;;;3.80;94.30;;;;;;5072278;28;20047;-88
2021/03/08 05:32:09;;;;;;;61.72;34.63;;;3.80;94.50;;;;;;5072233;28;20028;-88
2021/03/08 05:34:40;;;;;;;55.78;32.10;;;3.80;94.60;;;;;;5072427;28;20028;-89
2021/03/08 05:37:06;;;;;;;61.70;35.22;;;3.80;94.80;;;;;;5073122;28;20025;-88
2021/03/08 05:39:33;;;;;;;58.67;32.50;;;3.80;94.90;;;;;;5073580;28;20111;-88
2021/03/08 05:42:11;;;;;;;64.00;33.58;;;3.80;94.90;;;;;;5073616;28;20054;-89
2021/03/08 05:45:01;;;;;;;58.90;32.03;;;3.90;94.80;;;;;;5072915;28;20017;-88
2021/03/08 05:47:45;;;;;;;61.53;34.97;;;3.90;94.80;;;;;;5074391;28;20067;-88
2021/03/08 05:50:25;;;;;;;60.88;32.08;;;3.80;94.90;;;;;;5076229;28;20078;-88
2021/03/08 05:53:04;;;;;;;63.58;34.58;;;3.80;95.10;;;;;;5075950;28;20029;-88
2021/03/08 05:55:53;;;;;;;59.90;34.58;;;3.80;95.30;;;;;;5075931;28;20055;-87
2021/03/08 05:58:30;;;;;;;64.13;35.28;;;3.90;95.40;;;;;;5076657;28;20048;-88
2021/03/08 06:01:14;;;;;;;64.90;34.35;;;3.80;95.60;;;;;;5076702;28;20421;-88
2021/03/08 06:04:05;;;;;;;62.40;35.35;;;3.90;95.60;;;;;;5075137;28;20476;-88
2021/03/08 06:07:07;;;;;;;60.40;34.90;;;3.90;95.50;;;;;;5075202;28;20123;-88
2021/03/08 06:09:53;;;;;;;59.63;33.00;;;3.90;95.40;;;;;;5073635;28;20056;-88
2021/03/08 06:12:24;;;;;;;58.63;34.35;;;3.90;95.40;;;;;;5076169;28;20056;-89
2021/03/08 06:14:56;;;;;;;61.42;34.13;;;3.90;95.40;;;;;;5075010;28;20024;-88
2021/03/08 06:17:22;;;;;;;61.75;34.58;;;3.90;95.30;;;;;;5076227;28;20020;-88
2021/03/08 06:19:50;;;;;;;54.58;31.58;;;3.90;95.20;;;;;;5075253;28;20468;-88
2021/03/08 06:22:16;;;;;;;62.20;34.35;;;4.00;95.10;;;;;;5075193;28;20028;-89
2021/03/08 06:24:44;;;;;;;56.10;32.97;;;4.00;95.00;;;;;;5076281;28;20074;-89
2021/03/08 06:27:15;;;;;;;57.80;31.80;;;4.00;94.90;;;;;;5074985;28;20020;-89
2021/03/08 06:29:42;;;;;;;58.55;33.20;;;4.00;94.80;;;;;;5075355;28;20111;-87
2021/03/08 06:32:09;;;;;;;60.35;32.00;;;4.00;94.70;;;;;;5074886;28;20020;-87
2021/03/08 06:34:35;;;;;;;58.97;32.50;;;4.00;94.70;;;;;;5076025;28;20082;-88
2021/03/08 06:37:08;;;;;;;62.17;35.15;;;4.00;94.80;;;;;;5079927;28;20024;-88
2021/03/08 06:39:36;;;;;;;67.63;36.60;;;4.10;94.80;;;;;;5085050;28;20058;-88
2021/03/08 06:42:03;;;;;;;56.05;32.60;;;4.00;94.90;;;;;;5083139;28;20051;-87
2021/03/08 06:44:30;;;;;;;59.60;33.50;;;4.00;95.00;;;;;;5085549;28;20012;-88
2021/03/08 06:46:56;;;;;;;61.80;34.67;;;4.00;95.00;;;;;;5083253;28;20027;-88
2021/03/08 06:49:21;;;;;;;63.17;34.30;;;4.00;95.00;;;;;;5084555;28;20094;-87
2021/03/08 06:52:00;;;;;;;62.20;34.95;;;4.00;95.00;;;;;;5083725;28;20020;-88
2021/03/08 06:54:25;;;;;;;65.25;35.17;;;4.00;95.00;;;;;;5080103;28;20467;-88
2021/03/08 06:56:51;;;;;;;59.85;33.40;;;4.00;95.00;;;;;;5084785;28;20116;-88
2021/03/08 06:59:16;;;;;;;65.22;35.63;;;4.00;94.90;;;;;;5084011;28;20044;-87
2021/03/08 07:01:42;;;;;;;62.50;34.03;;;4.10;94.90;;;;;;5081127;28;20017;-89
2021/03/08 07:04:18;;;;;;;64.25;36.03;;;4.00;94.90;;;;;;5082281;28;20518;-89
2021/03/08 07:06:58;;;;;;;60.17;34.10;;;4.10;95.00;;;;;;5075649;28;20032;-89
2021/03/08 07:09:24;;;;;;;58.40;32.88;;;4.10;95.00;;;;;;5077582;28;20478;-88
2021/03/08 07:12:10;;;;;;;59.35;33.67;;;4.10;95.00;;;;;;5085593;28;20032;-88
2021/03/08 07:14:37;;;;;;;58.83;32.83;;;4.20;94.90;;;;;;5084168;28;20059;-89
2021/03/08 07:17:21;;;;;;;57.75;31.10;;;4.10;95.00;;;;;;5089162;28;20023;-89
2021/03/08 07:19:54;;;;;;;57.72;32.80;;;4.20;94.90;;;;;;5080321;28;20027;-88
2021/03/08 07:22:46;;;;;;;60.92;33.17;;;4.20;94.90;;;;;;5079285;28;20044;-89
2021/03/08 07:25:19;;;;;;;53.28;30.58;;;4.30;94.80;;;;;;5083603;28;20024;-88
2021/03/08 07:27:58;;;;;;;54.38;31.73;;;4.30;94.70;;;;;;5087485;28;20020;-89
2021/03/08 07:30:29;;;;;;;56.22;31.98;;;4.30;95.00;;;;;;5085332;28;20051;-89
2021/03/08 07:33:06;;;;;;;57.63;32.30;;;4.40;94.70;;;;;;5080987;28;20093;-88
2021/03/08 07:35:48;;;;;;;58.28;32.45;;;4.40;94.60;;;;;;5086092;28;20028;-89
2021/03/08 07:38:14;;;;;;;58.00;32.97;;;4.40;94.50;;;;;;5103181;28;20029;-88
2021/03/08 07:40:49;;;;;;;56.08;32.75;;;4.50;94.50;;;;;;5079745;28;20020;-88
2021/03/08 07:43:23;;;;;;;54.65;31.88;;;4.50;94.50;;;;;;5073866;28;20155;-89
2021/03/08 07:45:49;;;;;;;59.15;34.15;;;4.50;94.50;;;;;;5082776;28;20042;-89
2021/03/08 07:48:19;;;;;;;56.42;31.55;;;4.60;94.50;;;;;;5104440;28;20039;-89
2021/03/08 07:50:47;;;;;;;58.53;32.80;;;4.60;94.40;;;;;;5117226;28;20062;-89
2021/03/08 07:53:29;;;;;;;62.40;34.33;;;4.60;94.30;;;;;;5118954;28;20042;-89
2021/03/08 07:56:14;;;;;;;57.95;34.67;;;4.60;94.20;;;;;;5110211;28;20028;-88
2021/03/08 07:58:43;;;;;;;56.67;32.47;;;4.60;94.30;;;;;;5094704;28;20083;-89
2021/03/08 08:01:09;;;;;;;56.60;33.30;;;4.60;94.40;;;;;;5094993;28;20484;-89
2021/03/08 08:03:36;;;;;;;58.40;32.88;;;4.60;94.40;;;;;;5093296;28;20012;-91
2021/03/08 08:06:08;;;;;;;58.53;33.97;;;4.70;94.40;;;;;;5093491;28;20024;-91
2021/03/08 08:08:36;;;;;;;62.72;35.25;;;4.70;94.40;;;;;;5093508;28;20020;-91
2021/03/08 08:11:03;;;;;;;57.72;33.30;;;4.70;94.30;;;;;;5093280;28;20031;-90
2021/03/08 08:13:43;;;;;;;57.55;34.25;;;4.70;94.40;;;;;;5093383;28;20036;-89
2021/03/08 08:16:11;;;;;;;62.05;34.90;;;4.80;94.30;;;;;;5093336;28;20031;-89
2021/03/08 08:18:44;;;;;;;58.63;34.45;;;4.80;94.30;;;;;;5092934;28;20024;-91
2021/03/08 08:21:15;;;;;;;56.50;32.72;;;4.80;94.20;;;;;;5093155;28;20085;-91
2021/03/08 08:23:43;;;;;;;57.75;33.97;;;4.80;94.20;;;;;;5092968;28;20024;-88
2021/03/08 08:26:12;;;;;;;54.08;32.00;;;4.80;94.10;;;;;;5093376;28;20063;-90
2021/03/08 08:28:41;;;;;;;61.90;35.00;;;4.80;94.10;;;;;;5093028;28;20113;-91
2021/03/08 08:31:07;;;;;;;59.45;34.58;;;4.90;94.20;;;;;;5093162;28;20028;-89
2021/03/08 08:33:33;;;;;;;59.45;34.03;;;4.90;94.10;;;;;;5093266;28;20077;-89
2021/03/08 08:36:13;;;;;;;60.10;35.28;;;5.00;94.10;;;;;;5092918;28;20035;-92
2021/03/08 08:38:40;;;;;;;60.17;35.00;;;5.00;93.90;;;;;;5082273;28;20023;-90
2021/03/08 08:41:26;;;;;;;62.58;34.92;;;5.00;93.90;;;;;;5072756;28;20479;-88
2021/03/08 08:44:12;;;;;;;65.95;37.72;;;5.10;94.00;;;;;;5072720;28;20035;-88
2021/03/08 08:46:47;;;;;;;58.38;35.33;;;5.20;94.00;;;;;;5072659;28;20032;-88
2021/03/08 08:49:20;;;;;;;62.13;35.30;;;5.20;93.90;;;;;;5089013;28;20024;-92
2021/03/08 08:51:49;;;;;;;56.63;32.88;;;5.20;93.90;;;;;;5093099;28;20028;-91
2021/03/08 08:54:27;;;;;;;56.65;32.45;;;5.20;93.80;;;;;;5092785;28;20028;-90
2021/03/08 08:57:10;;;;;;;61.28;35.60;;;5.40;93.80;;;;;;5092507;28;20047;-89
2021/03/08 08:59:37;;;;;;;61.83;35.85;;;5.40;93.60;;;;;;5092722;28;20040;-90
2021/03/08 09:04:46;;;;;;;56.00;33.13;;;5.40;93.40;;;;;;5093818;28;20111;-88
2021/03/08 09:07:26;;;;;;;56.90;33.05;;;5.40;93.50;;;;;;5092502;28;20455;-89
2021/03/08 09:09:54;;;;;;;59.85;34.90;;;5.60;93.50;;;;;;5092340;28;20099;-88
2021/03/08 09:12:43;;;;;;;61.58;35.10;;;5.60;93.30;;;;;;5092231;28;20020;-88
2021/03/08 09:15:16;;;;;;;61.85;34.42;;;5.70;93.10;;;;;;5092732;28;20545;-89
2021/03/08 09:17:51;;;;;;;55.25;32.75;;;5.70;93.10;;;;;;5092548;28;20021;-89
2021/03/08 09:20:18;;;;;;;53.45;32.97;;;5.80;93.00;;;;;;5092645;28;20564;-87
2021/03/08 09:22:51;;;;;;;56.05;31.75;;;5.90;92.90;;;;;;5095473;28;20081;-89
2021/03/08 09:25:26;;;;;;;56.55;33.00;;;6.00;92.70;;;;;;5096329;28;20031;-89
2021/03/08 09:28:01;;;;;;;53.60;32.10;;;6.10;92.70;;;;;;5096036;28;20032;-88
2021/03/08 09:30:28;;;;;;;58.33;33.20;;;6.20;92.60;;;;;;5097337;28;20038;-88
2021/03/08 09:33:02;;;;;;;50.03;31.52;;;6.20;92.40;;;;;;5095689;28;20024;-88
2021/03/08 09:35:34;;;;;;;49.90;30.52;;;6.20;92.30;;;;;;5096055;28;20020;-87
2021/03/08 09:38:27;;;;;;;52.50;32.10;;;6.30;92.30;;;;;;5092230;28;20488;-88
2021/03/08 09:40:57;;;;;;;51.67;31.05;;;6.40;91.90;;;;;;5078363;28;20376;-89
2021/03/08 09:43:30;;;;;;;57.88;33.83;;;6.40;91.80;;;;;;5074269;28;20040;-87
2021/03/08 09:46:01;;;;;;;50.35;30.17;;;6.40;91.50;;;;;;5080610;28;20383;-89
2021/03/08 09:48:29;;;;;;;49.60;30.05;;;6.50;91.30;;;;;;5078626;28;20027;-89
2021/03/08 09:51:06;;;;;;;50.30;30.63;;;6.60;91.30;;;;;;5075381;28;20031;-90
2021/03/08 09:53:33;;;;;;;50.40;31.55;;;6.70;90.80;;;;;;5076651;28;20118;-87
2021/03/08 09:56:15;;;;;;;52.05;33.20;;;6.70;90.90;;;;;;5074810;28;20024;-88
2021/03/08 09:58:42;;;;;;;50.97;30.73;;;6.70;90.50;;;;;;5075365;28;20037;-88
2021/03/08 10:01:15;;;;;;;49.13;31.13;;;6.70;90.70;;;;;;5075427;28;20024;-88
2021/03/08 10:03:41;;;;;;;47.53;30.98;;;6.80;90.60;;;;;;5074930;28;20029;-87
2021/03/08 10:06:06;;;;;;;51.47;30.00;;;6.90;90.70;;;;;;5076109;28;20029;-88
2021/03/08 10:08:32;;;;;;;46.70;30.33;;;7.00;90.30;;;;;;5075786;28;20154;-85
2021/03/08 10:10:58;;;;;;;47.63;29.38;;;7.10;90.10;;;;;;5077422;28;20483;-84
2021/03/08 10:13:25;;;;;;;47.95;28.92;;;7.20;90.00;;;;;;5082585;28;20036;-85
2021/03/08 10:15:56;;;;;;;51.65;29.25;;;7.20;89.30;;;;;;5079732;28;20031;-85
2021/03/08 10:18:31;;;;;;;47.03;28.88;;;7.20;89.20;;;;;;5084474;28;20039;-85
2021/03/08 10:21:01;;;;;;;47.20;28.90;;;7.20;89.60;;;;;;5081991;28;20066;-92
2021/03/08 10:23:30;;;;;;;45.90;29.60;;;7.40;89.90;;;;;;5076945;28;20025;-90
2021/03/08 10:26:13;;;;;;;44.57;26.83;;;7.50;89.40;;;;;;5075047;28;20036;-91
2021/03/08 10:28:45;;;;;;;46.95;29.92;;;7.70;88.50;;;;;;5075102;28;20069;-89
2021/03/08 10:31:22;;;;;;;41.38;26.50;;;7.70;88.00;;;;;;5081662;28;20065;-92
2021/03/08 10:34:04;;;;;;;44.25;27.92;;;7.70;87.70;;;;;;5081795;28;20013;-91
2021/03/08 10:36:37;;;;;;;40.95;28.02;;;7.90;87.40;;;;;;5084665;28;20032;-88
2021/03/08 10:39:08;;;;;;;45.95;28.27;;;7.70;86.20;;;;;;5092712;28;20027;-91
2021/03/08 10:41:36;;;;;;;43.58;27.30;;;7.60;86.60;;;;;;5097399;28;20479;-89
2021/03/08 10:44:02;;;;;;;40.50;25.55;;;7.60;87.30;;;;;;5096116;28;20062;-91
2021/03/08 10:46:34;;;;;;;45.95;28.35;;;7.70;86.80;;;;;;5076222;28;20127;-87
2021/03/08 10:49:04;;;;;;;43.60;27.63;;;7.70;85.90;;;;;;5075051;28;20050;-92
2021/03/08 10:51:32;;;;;;;41.60;27.38;;;7.60;85.90;;;;;;5075855;28;20059;-92
2021/03/08 10:54:02;;;;;;;45.70;26.83;;;7.50;85.90;;;;;;5074690;28;20028;-92
2021/03/08 10:56:28;;;;;;;45.97;28.20;;;7.60;86.20;;;;;;5074878;28;20021;-89
2021/03/08 10:58:55;;;;;;;45.35;27.98;;;7.60;86.30;;;;;;5075471;28;20094;-92
2021/03/08 11:01:21;;;;;;;45.20;28.80;;;7.60;85.30;;;;;;5074730;28;20542;-91
2021/03/08 11:03:47;;;;;;;45.20;28.70;;;7.70;85.90;;;;;;5075755;28;20107;-88
2021/03/08 11:06:15;;;;;;;45.30;27.20;;;7.60;85.80;;;;;;5075374;28;20067;-92
2021/03/08 11:08:54;;;;;;;44.83;27.65;;;7.70;86.40;;;;;;5074535;28;20032;-92
2021/03/08 11:11:22;;;;;;;41.70;25.77;;;7.90;86.00;;;;;;5074370;28;20104;-92
2021/03/08 11:13:49;;;;;;;40.95;25.45;;;8.00;86.40;;;;;;5074531;28;20127;-91
2021/03/08 11:16:16;;;;;;;41.00;25.92;;;8.00;85.10;;;;;;5074009;28;20548;-92
2021/03/08 11:18:45;;;;;;;39.92;25.42;;;8.10;84.40;;;;;;5074217;28;20522;-92
2021/03/08 11:21:30;;;;;;;43.15;26.40;;;8.10;84.30;;;;;;5076520;28;20021;-90
2021/03/08 11:24:20;;;;;;;36.00;24.13;;;8.00;84.40;;;;;;5084747;28;20471;-91
2021/03/08 11:27:05;;;;;;;;;;;8.00;83.70;;;;;;5076703;28;20114;-89
2021/03/08 11:29:30;;;;;;;35.50;22.83;;;7.90;84.00;;;;;;5099023;28;20332;-90
2021/03/08 11:31:56;;;;;;;32.53;21.02;;;7.80;83.40;;;;;;5088305;28;20027;-87
2021/03/08 11:34:43;;;;;;;38.08;23.83;;;7.90;83.50;;;;;;5095318;28;20103;-92
2021/03/08 11:37:09;;;;;;;38.58;22.38;;;8.00;83.10;;;;;;5088668;28;20033;-91
2021/03/08 11:39:47;;;;;;;37.33;21.98;;;8.00;83.50;;;;;;5080832;28;20052;-92
2021/03/08 11:42:14;;;;;;;35.13;20.58;;;8.10;82.20;;;;;;5082203;28;20361;-89
2021/03/08 11:44:39;;;;;;;35.45;22.60;;;8.10;83.10;;;;;;5093331;28;20020;-91
2021/03/08 11:47:06;;;;;;;31.63;21.45;;;8.10;82.00;;;;;;5093836;28;20372;-91
2021/03/08 11:49:32;;;;;;;33.72;20.95;;;8.00;81.80;;;;;;5089562;28;20074;-92
2021/03/08 11:51:58;;;;;;;32.33;21.38;;;8.10;81.90;;;;;;5080710;28;20070;-89
2021/03/08 11:54:24;;;;;;;32.80;19.90;;;8.30;81.80;;;;;;5074700;28;20020;-91
2021/03/08 11:56:50;;;;;;;31.00;20.15;;;8.30;80.40;;;;;;5079498;28;20032;-91
2021/03/08 11:59:16;;;;;;;35.05;22.38;;;8.30;80.70;;;;;;5072480;28;20036;-91
2021/03/08 12:01:41;;;;;;;34.00;21.92;;;8.50;80.80;;;;;;5087578;28;20028;-90
2021/03/08 12:04:07;;;;;;;33.15;20.33;;;8.50;80.60;;;;;;5074045;28;20479;-91
2021/03/08 12:06:32;;;;;;;32.33;20.30;;;8.70;80.80;;;;;;5075604;28;20035;-92
2021/03/08 12:09:01;;;;;;;31.15;19.20;;;8.90;79.90;;;;;;5078661;28;20086;-91
2021/03/08 12:11:26;;;;;;;36.47;21.02;;;9.10;79.70;;;;;;5084205;28;20490;-90
2021/03/08 12:13:52;;;;;;;34.22;19.33;;;9.20;79.20;;;;;;5083355;28;20127;-91
2021/03/08 12:16:18;;;;;;;27.95;17.48;;;9.40;77.70;;;;;;5083456;28;20081;-92
2021/03/08 12:18:43;;;;;;;28.52;19.05;;;9.50;77.60;;;;;;5076537;28;20062;-93
2021/03/08 12:21:09;;;;;;;33.15;21.00;;;9.70;76.60;;;;;;5078548;28;20432;-93
2021/03/08 12:23:34;;;;;;;28.20;18.70;;;9.60;75.10;;;;;;5078243;28;20020;-91
2021/03/08 12:26:00;;;;;;;27.55;18.35;;;9.50;75.30;;;;;;5080959;28;20028;-91
2021/03/08 12:28:25;;;;;;;32.95;19.33;;;9.60;75.80;;;;;;5082261;28;20021;-90
2021/03/08 12:30:52;;;;;;;26.55;16.73;;;9.60;75.40;;;;;;5081698;28;20024;-91
2021/03/08 12:33:18;;;;;;;24.85;15.95;;;9.60;74.50;;;;;;5083223;28;20180;-89
2021/03/08 12:35:44;;;;;;;28.83;17.15;;;9.80;74.90;;;;;;5082592;28;20474;-91
2021/03/08 12:38:10;;;;;;;25.73;17.35;;;10.00;74.40;;;;;;5085383;28;20021;-91
2021/03/08 12:40:35;;;;;;;26.13;17.88;;;10.30;73.70;;;;;;5083997;28;20032;-92
2021/03/08 12:43:02;;;;;;;24.90;16.23;;;10.30;73.40;;;;;;5084310;28;20051;-91
2021/03/08 12:45:28;;;;;;;26.45;16.25;;;10.30;73.70;;;;;;5079856;28;20028;-91
2021/03/08 12:47:53;;;;;;;26.92;15.45;;;10.30;72.90;;;;;;5084721;28;20095;-93
2021/03/08 12:50:19;;;;;;;24.65;15.65;;;10.40;72.60;;;;;;5081035;28;20031;-92
2021/03/08 12:52:44;;;;;;;26.80;18.05;;;10.40;70.80;;;;;;5086073;28;20033;-92
2021/03/08 12:55:10;;;;;;;22.13;16.58;;;10.60;71.10;;;;;;5082223;28;20111;-90